Philip R. Clarke — WDH7554 — position and weather

sailwx.info

Track history (hours):
 
Tides and Currents Weather Stations Pressure Air Temp Water Temp Dewpoint Dewpoint Depression Visibility Wind Speed Wind Dir Waves Ship Positions

Philip R. Clarke

Owner: Great Lakes Fleet, Inc., Homewood, IL. More information available from US FCC via Universal Licensing System and Coast Guard Vessel Documentation Center.

Last reported at 2017-Dec-11 15:00 UTC. Time now 2017-Dec-14 13:18 UTC.
Position N 44°30' W 086°24'.

Length 234 m; draft 24.3 m.

Type: Cargo ship. MMSI: 366971350.

Wind from 140 at 23 knots

Barometer 1011.8 mb
Air temperature -4.9 ° C
Visibility: greater than 10.8 NM
Water temperature 6.6 ° C

Date/timePositionNaut miles runAvg speedWind from/ knotsBaromVisibWave heightAir tempDewpointWater temp
2017-Dec-11 15:00N 44°30' W 086°24'5613.9 140 / 231011.810.8 -4.9 6.6
2017-Dec-11 11:00N 43°36' W 086°42'9812.3 120 / 121015.210.8 -2.2 7.7
2017-Dec-11 03:00N 42°00' W 087°12'11 0.9 330 / 241017.927.0 -1.1 5.5
2017-Dec-10 15:00N 42°06' W 087°24'49 9.8 210 / 261012.510.8 -2.2 5.5
2017-Dec-10 10:00N 42°54' W 087°36'7210.3 240 / 221013.810.8 -5.5 4.4
2017-Dec-10 03:00N 44°06' W 087°36'0 0.0 290 / 151016.227.0 -7.7 4.4
2017-Dec-09 19:00N 44°06' W 087°36'101 6.3 350 / 251013.227.0 -3.8 2.7
2017-Dec-09 03:00N 45°36' W 086°30'3510.9 110 / 31007.7 2.2 -4.4 4.4
2017-Dec-08 23:48N 45°53' W 085°47'3 9.6
2017-Dec-08 23:30N 45°53' W 085°43'5 9.4
2017-Dec-08 23:00N 45°53' W 085°36'5 9.2
2017-Dec-08 22:30N 45°53' W 085°29'5 9.4
2017-Dec-08 21:59N 45°53' W 085°22'5 9.4
2017-Dec-08 21:30N 45°52' W 085°16'5 9.7
2017-Dec-08 21:00N 45°51' W 085°09'5 9.8
2017-Dec-08 20:30N 45°51' W 085°02'5 9.4
2017-Dec-08 20:00N 45°50' W 084°55'6363.9
2017-Dec-08 20:00N 45°48' W 084°48'1 3.0 300 / 291007.727.0 -4.9 3.3
2017-Dec-08 19:30N 45°49' W 084°49'5 9.3
2017-Dec-08 19:00N 45°49' W 084°42'5 9.4
2017-Dec-08 18:30N 45°51' W 084°36'5 9.6
2017-Dec-08 18:00N 45°52' W 084°29'2512.2
2017-Dec-08 16:00N 45°54' W 083°54'106 8.2 280 / 241005.0 2.2 -4.4 4.4
2017-Dec-08 03:00N 47°06' W 085°48'5213.0 240 / 331006.7 5.4 -2.2 4.4
2017-Dec-07 23:00N 47°24' W 087°00'5811.6 290 / 261009.8 2.2 -3.8 3.3
2017-Dec-07 18:00N 47°36' W 088°24'4514.8 280 / 281012.8 2.2 -6.6 4.4
2017-Dec-07 15:00N 47°36' W 089°30'4912.2 280 / 191016.5 5.4 -7.7 4.4
2017-Dec-07 11:00N 47°30' W 090°42'5711.0 270 / 201019.910.8 -11.6 3.3
2017-Dec-07 05:46N 46°55' W 091°48'312.5
2017-Dec-07 05:30N 46°53' W 091°52'612.3
2017-Dec-07 05:00N 46°49' W 091°60'4 8.9
2017-Dec-07 04:30N 46°45' W 091°58'3 6.7
2017-Dec-07 04:00N 46°42' W 092°01'0 0.9
2017-Dec-07 03:30N 46°42' W 092°01'0 0.0
2017-Dec-07 03:00N 46°42' W 092°01'0 0.0
2017-Dec-07 02:30N 46°42' W 092°01'0 0.0
2017-Dec-07 02:00N 46°42' W 092°01'0 0.0
2017-Dec-07 01:30N 46°42' W 092°01'0 0.0
2017-Dec-07 01:00N 46°42' W 092°01'0 0.0
2017-Dec-07 00:30N 46°42' W 092°01'0 0.0
2017-Dec-07 00:00N 46°42' W 092°01'0 0.0
2017-Dec-06 23:30N 46°42' W 092°01'0 0.0
2017-Dec-06 23:00N 46°42' W 092°01'0 0.0
2017-Dec-06 22:30N 46°42' W 092°01'0 0.0
2017-Dec-06 22:00N 46°42' W 092°01'0 0.0
2017-Dec-06 21:30N 46°42' W 092°01'0 0.0
2017-Dec-06 21:00N 46°42' W 092°01'  
2017-Dec-04 10:30N 46°44' W 092°05'0 0.0
2017-Dec-04 10:00N 46°44' W 092°05'0 0.0
2017-Dec-04 09:30N 46°44' W 092°05'0 0.0
2017-Dec-04 09:00N 46°44' W 092°05'0 0.0
2017-Dec-04 08:30N 46°44' W 092°05'0 0.0
2017-Dec-04 08:00N 46°44' W 092°05'0 0.0
2017-Dec-04 07:30N 46°44' W 092°05'0 0.0
2017-Dec-04 07:00N 46°44' W 092°05'0 0.0
2017-Dec-04 06:30N 46°44' W 092°05'0 0.0
2017-Dec-04 06:00N 46°44' W 092°05'0 0.0
2017-Dec-04 05:30N 46°44' W 092°05'0 0.0
2017-Dec-04 05:00N 46°44' W 092°05'0 0.0
2017-Dec-04 04:30N 46°44' W 092°05'0 0.0
2017-Dec-04 04:00N 46°44' W 092°05'0 0.0
2017-Dec-04 03:30N 46°44' W 092°05'0 0.0
2017-Dec-04 03:00N 46°44' W 092°05'0 0.0
2017-Dec-04 02:30N 46°44' W 092°05'0 0.0
2017-Dec-04 02:00N 46°44' W 092°05'0 0.0
2017-Dec-04 01:30N 46°44' W 092°05'0 0.0
2017-Dec-04 01:00N 46°44' W 092°05'0 0.9
2017-Dec-04 00:31N 46°44' W 092°06'1 2.1
2017-Dec-04 00:00N 46°44' W 092°07'0 0.4
2017-Dec-03 23:29N 46°44' W 092°07'0 0.0
2017-Dec-03 23:00N 46°44' W 092°07'0 0.0
2017-Dec-03 22:30N 46°44' W 092°07'0 0.0
2017-Dec-03 22:00N 46°44' W 092°07'0 0.0
2017-Dec-03 21:30N 46°44' W 092°07'0 0.0
2017-Dec-03 21:00N 46°44' W 092°07'0 0.0
2017-Dec-03 20:30N 46°44' W 092°07'0 0.0
2017-Dec-03 20:00N 46°44' W 092°07'0 0.5
2017-Dec-03 19:30N 46°44' W 092°07'1 1.4
2017-Dec-03 18:59N 46°45' W 092°08'0 0.0
2017-Dec-03 18:29N 46°45' W 092°08'0 0.0
2017-Dec-03 18:00N 46°45' W 092°08'0 0.0
2017-Dec-03 17:31N 46°45' W 092°08'0 0.0
2017-Dec-03 17:00N 46°45' W 092°08'0 0.0
2017-Dec-03 16:30N 46°45' W 092°08'0 0.0
2017-Dec-03 15:59N 46°45' W 092°08'0 0.0
2017-Dec-03 15:29N 46°45' W 092°08'0 0.0
2017-Dec-03 15:01N 46°45' W 092°08'0 0.0
2017-Dec-03 14:30N 46°45' W 092°08'1 2.0
2017-Dec-03 14:00N 46°45' W 092°07'2 3.7
2017-Dec-03 13:30N 46°46' W 092°06'5 9.4
2017-Dec-03 12:59N 46°49' W 091°60'612.6
2017-Dec-03 12:30N 46°51' W 091°51'612.6
2017-Dec-03 12:00N 46°53' W 091°43'612.5
2017-Dec-03 11:30N 46°56' W 091°34'1121.8
2017-Dec-03 11:00N 46°54' W 091°18'9912.3 220 / 12 10.8 2.2 3.8
2017-Dec-03 03:00N 47°24' W 089°00'10211.3 250 / 51018.227.0 3.3 3.8
2017-Dec-02 18:00N 47°18' W 086°30'3416.9 310 / 101015.227.0 4.9 4.9
2017-Dec-02 16:00N 47°00' W 085°48'111 8.0 230 / 171015.227.0 5.5 4.4
2017-Dec-02 02:11N 45°44' W 083°51'212.8
2017-Dec-02 02:00N 45°42' W 083°50'612.8
2017-Dec-02 01:30N 45°35' W 083°49'612.7
2017-Dec-02 01:00N 45°29' W 083°47'4 7.7
2017-Dec-02 00:30N 45°25' W 083°46'1 2.3
2017-Dec-02 00:00N 45°25' W 083°47'0 0.0
2017-Dec-01 23:30N 45°25' W 083°47'0 0.0
2017-Dec-01 23:00N 45°25' W 083°47'0 0.1
2017-Dec-01 22:30N 45°25' W 083°47'0 0.0
2017-Dec-01 22:00N 45°25' W 083°47'0 0.0
2017-Dec-01 21:30N 45°25' W 083°47'0 0.0
2017-Dec-01 21:00N 45°25' W 083°47'0 0.1
2017-Dec-01 20:30N 45°25' W 083°47'0 0.0
2017-Dec-01 20:00N 45°25' W 083°47'0 0.0
2017-Dec-01 19:30N 45°25' W 083°47'0 0.0
2017-Dec-01 19:00N 45°25' W 083°47'0 0.0
2017-Dec-01 18:30N 45°25' W 083°47'0 0.0
2017-Dec-01 18:00N 45°25' W 083°47'0 0.0
2017-Dec-01 17:30N 45°25' W 083°47'0 0.0
2017-Dec-01 17:00N 45°25' W 083°47'0 0.0
2017-Dec-01 16:30N 45°25' W 083°47'0 0.0
2017-Dec-01 16:00N 45°25' W 083°47'0 0.0
2017-Dec-01 15:30N 45°25' W 083°47'0 0.0
2017-Dec-01 15:00N 45°25' W 083°47'  
Track history (hours):
 
Tides and Currents Weather Stations Pressure Air Temp Water Temp Dewpoint Dewpoint Depression Visibility Wind Speed Wind Dir Waves Ship Positions

Philip R. Clarke

Owner: Great Lakes Fleet, Inc., Homewood, IL. More information available from US FCC via Universal Licensing System and Coast Guard Vessel Documentation Center.

Last reported at 2017-Dec-11 15:00 UTC. Time now 2017-Dec-14 13:18 UTC.
Position N 44°30' W 086°24'.

Length 234 m; draft 24.3 m.

Type: Cargo ship. MMSI: 366971350.

Wind from 140 at 23 knots

Barometer 1011.8 mb
Air temperature -4.9 ° C
Visibility: greater than 10.8 NM
Water temperature 6.6 ° C

Date/timePositionNaut miles runAvg speedWind from/ knotsBaromVisibWave heightAir tempDewpointWater temp
2017-Dec-11 15:00N 44°30' W 086°24'5613.9 140 / 231011.810.8 -4.9 6.6
2017-Dec-11 11:00N 43°36' W 086°42'9812.3 120 / 121015.210.8 -2.2 7.7
2017-Dec-11 03:00N 42°00' W 087°12'11 0.9 330 / 241017.927.0 -1.1 5.5
2017-Dec-10 15:00N 42°06' W 087°24'49 9.8 210 / 261012.510.8 -2.2 5.5
2017-Dec-10 10:00N 42°54' W 087°36'7210.3 240 / 221013.810.8 -5.5 4.4
2017-Dec-10 03:00N 44°06' W 087°36'0 0.0 290 / 151016.227.0 -7.7 4.4
2017-Dec-09 19:00N 44°06' W 087°36'101 6.3 350 / 251013.227.0 -3.8 2.7
2017-Dec-09 03:00N 45°36' W 086°30'3510.9 110 / 31007.7 2.2 -4.4 4.4
2017-Dec-08 23:48N 45°53' W 085°47'3 9.6
2017-Dec-08 23:30N 45°53' W 085°43'5 9.4
2017-Dec-08 23:00N 45°53' W 085°36'5 9.2
2017-Dec-08 22:30N 45°53' W 085°29'5 9.4
2017-Dec-08 21:59N 45°53' W 085°22'5 9.4
2017-Dec-08 21:30N 45°52' W 085°16'5 9.7
2017-Dec-08 21:00N 45°51' W 085°09'5 9.8
2017-Dec-08 20:30N 45°51' W 085°02'5 9.4
2017-Dec-08 20:00N 45°50' W 084°55'6363.9
2017-Dec-08 20:00N 45°48' W 084°48'1 3.0 300 / 291007.727.0 -4.9 3.3
2017-Dec-08 19:30N 45°49' W 084°49'5 9.3
2017-Dec-08 19:00N 45°49' W 084°42'5 9.4
2017-Dec-08 18:30N 45°51' W 084°36'5 9.6
2017-Dec-08 18:00N 45°52' W 084°29'2512.2
2017-Dec-08 16:00N 45°54' W 083°54'106 8.2 280 / 241005.0 2.2 -4.4 4.4
2017-Dec-08 03:00N 47°06' W 085°48'5213.0 240 / 331006.7 5.4 -2.2 4.4
2017-Dec-07 23:00N 47°24' W 087°00'5811.6 290 / 261009.8 2.2 -3.8 3.3
2017-Dec-07 18:00N 47°36' W 088°24'4514.8 280 / 281012.8 2.2 -6.6 4.4
2017-Dec-07 15:00N 47°36' W 089°30'4912.2 280 / 191016.5 5.4 -7.7 4.4
2017-Dec-07 11:00N 47°30' W 090°42'5711.0 270 / 201019.910.8 -11.6 3.3
2017-Dec-07 05:46N 46°55' W 091°48'312.5
2017-Dec-07 05:30N 46°53' W 091°52'612.3
2017-Dec-07 05:00N 46°49' W 091°60'4 8.9
2017-Dec-07 04:30N 46°45' W 091°58'3 6.7
2017-Dec-07 04:00N 46°42' W 092°01'0 0.9
2017-Dec-07 03:30N 46°42' W 092°01'0 0.0
2017-Dec-07 03:00N 46°42' W 092°01'0 0.0
2017-Dec-07 02:30N 46°42' W 092°01'0 0.0
2017-Dec-07 02:00N 46°42' W 092°01'0 0.0
2017-Dec-07 01:30N 46°42' W 092°01'0 0.0
2017-Dec-07 01:00N 46°42' W 092°01'0 0.0
2017-Dec-07 00:30N 46°42' W 092°01'0 0.0
2017-Dec-07 00:00N 46°42' W 092°01'0 0.0
2017-Dec-06 23:30N 46°42' W 092°01'0 0.0
2017-Dec-06 23:00N 46°42' W 092°01'0 0.0
2017-Dec-06 22:30N 46°42' W 092°01'0 0.0
2017-Dec-06 22:00N 46°42' W 092°01'0 0.0
2017-Dec-06 21:30N 46°42' W 092°01'0 0.0
2017-Dec-06 21:00N 46°42' W 092°01'  
2017-Dec-04 10:30N 46°44' W 092°05'0 0.0
2017-Dec-04 10:00N 46°44' W 092°05'0 0.0
2017-Dec-04 09:30N 46°44' W 092°05'0 0.0
2017-Dec-04 09:00N 46°44' W 092°05'0 0.0
2017-Dec-04 08:30N 46°44' W 092°05'0 0.0
2017-Dec-04 08:00N 46°44' W 092°05'0 0.0
2017-Dec-04 07:30N 46°44' W 092°05'0 0.0
2017-Dec-04 07:00N 46°44' W 092°05'0 0.0
2017-Dec-04 06:30N 46°44' W 092°05'0 0.0
2017-Dec-04 06:00N 46°44' W 092°05'0 0.0
2017-Dec-04 05:30N 46°44' W 092°05'0 0.0
2017-Dec-04 05:00N 46°44' W 092°05'0 0.0
2017-Dec-04 04:30N 46°44' W 092°05'0 0.0
2017-Dec-04 04:00N 46°44' W 092°05'0 0.0
2017-Dec-04 03:30N 46°44' W 092°05'0 0.0
2017-Dec-04 03:00N 46°44' W 092°05'0 0.0
2017-Dec-04 02:30N 46°44' W 092°05'0 0.0
2017-Dec-04 02:00N 46°44' W 092°05'0 0.0
2017-Dec-04 01:30N 46°44' W 092°05'0 0.0
2017-Dec-04 01:00N 46°44' W 092°05'0 0.9
2017-Dec-04 00:31N 46°44' W 092°06'1 2.1
2017-Dec-04 00:00N 46°44' W 092°07'0 0.4
2017-Dec-03 23:29N 46°44' W 092°07'0 0.0
2017-Dec-03 23:00N 46°44' W 092°07'0 0.0
2017-Dec-03 22:30N 46°44' W 092°07'0 0.0
2017-Dec-03 22:00N 46°44' W 092°07'0 0.0
2017-Dec-03 21:30N 46°44' W 092°07'0 0.0
2017-Dec-03 21:00N 46°44' W 092°07'0 0.0
2017-Dec-03 20:30N 46°44' W 092°07'0 0.0
2017-Dec-03 20:00N 46°44' W 092°07'0 0.5
2017-Dec-03 19:30N 46°44' W 092°07'1 1.4
2017-Dec-03 18:59N 46°45' W 092°08'0 0.0
2017-Dec-03 18:29N 46°45' W 092°08'0 0.0
2017-Dec-03 18:00N 46°45' W 092°08'0 0.0
2017-Dec-03 17:31N 46°45' W 092°08'0 0.0
2017-Dec-03 17:00N 46°45' W 092°08'0 0.0
2017-Dec-03 16:30N 46°45' W 092°08'0 0.0
2017-Dec-03 15:59N 46°45' W 092°08'0 0.0
2017-Dec-03 15:29N 46°45' W 092°08'0 0.0
2017-Dec-03 15:01N 46°45' W 092°08'0 0.0
2017-Dec-03 14:30N 46°45' W 092°08'1 2.0
2017-Dec-03 14:00N 46°45' W 092°07'2 3.7
2017-Dec-03 13:30N 46°46' W 092°06'5 9.4
2017-Dec-03 12:59N 46°49' W 091°60'612.6
2017-Dec-03 12:30N 46°51' W 091°51'612.6
2017-Dec-03 12:00N 46°53' W 091°43'612.5
2017-Dec-03 11:30N 46°56' W 091°34'1121.8
2017-Dec-03 11:00N 46°54' W 091°18'9912.3 220 / 12 10.8 2.2 3.8
2017-Dec-03 03:00N 47°24' W 089°00'10211.3 250 / 51018.227.0 3.3 3.8
2017-Dec-02 18:00N 47°18' W 086°30'3416.9 310 / 101015.227.0 4.9 4.9
2017-Dec-02 16:00N 47°00' W 085°48'111 8.0 230 / 171015.227.0 5.5 4.4
2017-Dec-02 02:11N 45°44' W 083°51'212.8
2017-Dec-02 02:00N 45°42' W 083°50'612.8
2017-Dec-02 01:30N 45°35' W 083°49'612.7
2017-Dec-02 01:00N 45°29' W 083°47'4 7.7
2017-Dec-02 00:30N 45°25' W 083°46'1 2.3
2017-Dec-02 00:00N 45°25' W 083°47'0 0.0
2017-Dec-01 23:30N 45°25' W 083°47'0 0.0
2017-Dec-01 23:00N 45°25' W 083°47'0 0.1
2017-Dec-01 22:30N 45°25' W 083°47'0 0.0
2017-Dec-01 22:00N 45°25' W 083°47'0 0.0
2017-Dec-01 21:30N 45°25' W 083°47'0 0.0
2017-Dec-01 21:00N 45°25' W 083°47'0 0.1
2017-Dec-01 20:30N 45°25' W 083°47'0 0.0
2017-Dec-01 20:00N 45°25' W 083°47'0 0.0
2017-Dec-01 19:30N 45°25' W 083°47'0 0.0
2017-Dec-01 19:00N 45°25' W 083°47'0 0.0
2017-Dec-01 18:30N 45°25' W 083°47'0 0.0
2017-Dec-01 18:00N 45°25' W 083°47'0 0.0
2017-Dec-01 17:30N 45°25' W 083°47'0 0.0
2017-Dec-01 17:00N 45°25' W 083°47'0 0.0
2017-Dec-01 16:30N 45°25' W 083°47'0 0.0
2017-Dec-01 16:00N 45°25' W 083°47'0 0.0
2017-Dec-01 15:30N 45°25' W 083°47'0 0.0
2017-Dec-01 15:00N 45°25' W 083°47'  

Dump ship's entire track history